sensor_id;sensor_type;location;lat;lon;timestamp;P1;durP1;ratioP1;P2;durP2;ratioP2
48925;SDS011;39838;59.938;30.642;2023-07-20T00:02:18;8.88;;;3.15;;
48925;SDS011;39838;59.938;30.642;2023-07-20T00:04:45;7.45;;;2.80;;
48925;SDS011;39838;59.938;30.642;2023-07-20T00:07:14;9.07;;;3.00;;
48925;SDS011;39838;59.938;30.642;2023-07-20T00:09:41;7.25;;;3.10;;
48925;SDS011;39838;59.938;30.642;2023-07-20T00:12:08;7.05;;;2.90;;
48925;SDS011;39838;59.938;30.642;2023-07-20T00:14:35;8.50;;;3.13;;
48925;SDS011;39838;59.938;30.642;2023-07-20T00:17:03;7.30;;;2.80;;
48925;SDS011;39838;59.938;30.642;2023-07-20T00:19:30;9.38;;;2.80;;
48925;SDS011;39838;59.938;30.642;2023-07-20T00:21:58;6.40;;;2.80;;
48925;SDS011;39838;59.938;30.642;2023-07-20T00:24:27;8.27;;;3.00;;
48925;SDS011;39838;59.938;30.642;2023-07-20T00:26:54;12.88;;;3.60;;
48925;SDS011;39838;59.938;30.642;2023-07-20T00:29:21;8.30;;;2.88;;
48925;SDS011;39838;59.938;30.642;2023-07-20T00:31:48;7.85;;;3.25;;
48925;SDS011;39838;59.938;30.642;2023-07-20T00:34:16;9.43;;;2.90;;
48925;SDS011;39838;59.938;30.642;2023-07-20T00:36:43;6.15;;;3.20;;
48925;SDS011;39838;59.938;30.642;2023-07-20T00:39:10;9.55;;;3.00;;
48925;SDS011;39838;59.938;30.642;2023-07-20T00:41:39;8.82;;;3.25;;
48925;SDS011;39838;59.938;30.642;2023-07-20T00:44:06;7.70;;;2.90;;
48925;SDS011;39838;59.938;30.642;2023-07-20T00:46:33;10.32;;;2.70;;
48925;SDS011;39838;59.938;30.642;2023-07-20T00:49:00;8.27;;;3.15;;
48925;SDS011;39838;59.938;30.642;2023-07-20T00:51:28;9.07;;;2.65;;
48925;SDS011;39838;59.938;30.642;2023-07-20T00:53:55;6.93;;;2.53;;
48925;SDS011;39838;59.938;30.642;2023-07-20T00:56:23;6.82;;;2.78;;
48925;SDS011;39838;59.938;30.642;2023-07-20T00:58:52;4.80;;;2.60;;
48925;SDS011;39838;59.938;30.642;2023-07-20T01:01:19;7.47;;;2.83;;
48925;SDS011;39838;59.938;30.642;2023-07-20T01:03:46;7.90;;;2.90;;
48925;SDS011;39838;59.938;30.642;2023-07-20T01:06:15;9.35;;;2.72;;
48925;SDS011;39838;59.938;30.642;2023-07-20T01:09:00;6.65;;;2.47;;
48925;SDS011;39838;59.938;30.642;2023-07-20T01:11:36;6.13;;;2.60;;
48925;SDS011;39838;59.938;30.642;2023-07-20T01:14:07;6.57;;;2.30;;
48925;SDS011;39838;59.938;30.642;2023-07-20T01:16:34;10.48;;;2.97;;
48925;SDS011;39838;59.938;30.642;2023-07-20T01:19:01;7.88;;;2.65;;
48925;SDS011;39838;59.938;30.642;2023-07-20T01:21:31;9.68;;;2.85;;
48925;SDS011;39838;59.938;30.642;2023-07-20T01:24:13;6.28;;;2.40;;
48925;SDS011;39838;59.938;30.642;2023-07-20T01:30:10;7.90;;;2.70;;
48925;SDS011;39838;59.938;30.642;2023-07-20T01:32:48;6.65;;;2.75;;
48925;SDS011;39838;59.938;30.642;2023-07-20T01:35:19;6.53;;;2.50;;
48925;SDS011;39838;59.938;30.642;2023-07-20T01:37:50;8.65;;;2.85;;
48925;SDS011;39838;59.938;30.642;2023-07-20T01:40:19;7.55;;;2.58;;
48925;SDS011;39838;59.938;30.642;2023-07-20T01:42:47;7.60;;;2.75;;
48925;SDS011;39838;59.938;30.642;2023-07-20T01:45:15;5.88;;;2.80;;
48925;SDS011;39838;59.938;30.642;2023-07-20T01:47:42;9.50;;;2.80;;
48925;SDS011;39838;59.938;30.642;2023-07-20T01:50:11;8.65;;;2.80;;
48925;SDS011;39838;59.938;30.642;2023-07-20T01:52:38;6.43;;;2.60;;
48925;SDS011;39838;59.938;30.642;2023-07-20T01:55:05;7.75;;;2.80;;
48925;SDS011;39838;59.938;30.642;2023-07-20T01:57:33;6.75;;;3.15;;
48925;SDS011;39838;59.938;30.642;2023-07-20T02:00:00;10.85;;;3.47;;
48925;SDS011;39838;59.938;30.642;2023-07-20T02:02:30;7.40;;;2.78;;
48925;SDS011;39838;59.938;30.642;2023-07-20T02:04:57;6.10;;;2.90;;
48925;SDS011;39838;59.938;30.642;2023-07-20T02:07:26;8.27;;;2.90;;
48925;SDS011;39838;59.938;30.642;2023-07-20T02:09:53;6.95;;;2.90;;
48925;SDS011;39838;59.938;30.642;2023-07-20T02:12:20;6.25;;;2.67;;
48925;SDS011;39838;59.938;30.642;2023-07-20T02:14:47;5.78;;;2.60;;
48925;SDS011;39838;59.938;30.642;2023-07-20T02:17:15;7.65;;;2.90;;
48925;SDS011;39838;59.938;30.642;2023-07-20T02:19:42;8.13;;;3.00;;
48925;SDS011;39838;59.938;30.642;2023-07-20T02:22:10;9.27;;;2.85;;
48925;SDS011;39838;59.938;30.642;2023-07-20T02:24:38;7.55;;;2.97;;
48925;SDS011;39838;59.938;30.642;2023-07-20T02:27:05;5.50;;;2.72;;
48925;SDS011;39838;59.938;30.642;2023-07-20T02:29:33;7.80;;;2.60;;
48925;SDS011;39838;59.938;30.642;2023-07-20T02:32:01;8.48;;;3.00;;
48925;SDS011;39838;59.938;30.642;2023-07-20T02:34:28;10.25;;;2.90;;
48925;SDS011;39838;59.938;30.642;2023-07-20T02:36:55;8.18;;;2.80;;
48925;SDS011;39838;59.938;30.642;2023-07-20T02:39:23;6.40;;;3.03;;
48925;SDS011;39838;59.938;30.642;2023-07-20T02:41:52;7.47;;;2.83;;
48925;SDS011;39838;59.938;30.642;2023-07-20T02:44:19;10.35;;;3.00;;
48925;SDS011;39838;59.938;30.642;2023-07-20T02:46:47;7.78;;;2.78;;
48925;SDS011;39838;59.938;30.642;2023-07-20T02:49:15;6.95;;;3.00;;
48925;SDS011;39838;59.938;30.642;2023-07-20T02:51:42;8.35;;;3.22;;
48925;SDS011;39838;59.938;30.642;2023-07-20T02:54:09;7.60;;;2.45;;
48925;SDS011;39838;59.938;30.642;2023-07-20T02:56:36;7.25;;;2.95;;
48925;SDS011;39838;59.938;30.642;2023-07-20T02:59:05;7.57;;;2.70;;
48925;SDS011;39838;59.938;30.642;2023-07-20T03:01:32;7.32;;;2.60;;
48925;SDS011;39838;59.938;30.642;2023-07-20T03:03:59;8.93;;;3.10;;
48925;SDS011;39838;59.938;30.642;2023-07-20T03:06:27;7.53;;;2.70;;
48925;SDS011;39838;59.938;30.642;2023-07-20T03:08:55;7.95;;;2.67;;
48925;SDS011;39838;59.938;30.642;2023-07-20T03:11:23;4.82;;;2.53;;
48925;SDS011;39838;59.938;30.642;2023-07-20T03:13:50;5.40;;;2.80;;
48925;SDS011;39838;59.938;30.642;2023-07-20T03:16:19;7.15;;;2.55;;
48925;SDS011;39838;59.938;30.642;2023-07-20T03:18:46;8.73;;;2.90;;
48925;SDS011;39838;59.938;30.642;2023-07-20T03:21:13;6.28;;;2.60;;
48925;SDS011;39838;59.938;30.642;2023-07-20T03:23:40;7.53;;;2.78;;
48925;SDS011;39838;59.938;30.642;2023-07-20T03:26:08;9.13;;;2.85;;
48925;SDS011;39838;59.938;30.642;2023-07-20T03:28:36;6.53;;;2.50;;
48925;SDS011;39838;59.938;30.642;2023-07-20T03:31:03;9.35;;;2.50;;
48925;SDS011;39838;59.938;30.642;2023-07-20T03:33:32;9.50;;;3.22;;
48925;SDS011;39838;59.938;30.642;2023-07-20T03:36:00;10.68;;;3.17;;
48925;SDS011;39838;59.938;30.642;2023-07-20T03:38:27;6.78;;;2.63;;
48925;SDS011;39838;59.938;30.642;2023-07-20T03:40:55;8.13;;;2.72;;
48925;SDS011;39838;59.938;30.642;2023-07-20T03:43:24;6.95;;;2.80;;
48925;SDS011;39838;59.938;30.642;2023-07-20T03:45:52;9.57;;;2.80;;
48925;SDS011;39838;59.938;30.642;2023-07-20T03:48:22;8.27;;;2.80;;
48925;SDS011;39838;59.938;30.642;2023-07-20T03:50:52;7.45;;;2.60;;
48925;SDS011;39838;59.938;30.642;2023-07-20T03:53:20;4.60;;;2.50;;
48925;SDS011;39838;59.938;30.642;2023-07-20T03:55:47;7.35;;;2.63;;
48925;SDS011;39838;59.938;30.642;2023-07-20T03:58:16;8.90;;;2.90;;
48925;SDS011;39838;59.938;30.642;2023-07-20T04:00:44;6.43;;;2.70;;
48925;SDS011;39838;59.938;30.642;2023-07-20T04:03:12;8.27;;;2.50;;
48925;SDS011;39838;59.938;30.642;2023-07-20T04:05:39;7.65;;;2.85;;
48925;SDS011;39838;59.938;30.642;2023-07-20T04:08:09;9.02;;;2.95;;
48925;SDS011;39838;59.938;30.642;2023-07-20T04:10:37;9.43;;;2.80;;
48925;SDS011;39838;59.938;30.642;2023-07-20T04:13:04;7.03;;;2.80;;
48925;SDS011;39838;59.938;30.642;2023-07-20T04:15:32;6.60;;;3.05;;
48925;SDS011;39838;59.938;30.642;2023-07-20T04:17:59;11.25;;;2.90;;
48925;SDS011;39838;59.938;30.642;2023-07-20T04:20:26;9.40;;;2.67;;
48925;SDS011;39838;59.938;30.642;2023-07-20T04:22:53;7.60;;;2.72;;
48925;SDS011;39838;59.938;30.642;2023-07-20T04:25:22;6.80;;;2.60;;
48925;SDS011;39838;59.938;30.642;2023-07-20T04:27:49;4.95;;;2.50;;
48925;SDS011;39838;59.938;30.642;2023-07-20T04:30:17;8.02;;;2.55;;
48925;SDS011;39838;59.938;30.642;2023-07-20T04:32:47;11.93;;;3.10;;
48925;SDS011;39838;59.938;30.642;2023-07-20T04:35:21;8.45;;;2.80;;
48925;SDS011;39838;59.938;30.642;2023-07-20T04:38:12;7.50;;;2.80;;
48925;SDS011;39838;59.938;30.642;2023-07-20T04:40:42;8.35;;;2.60;;
48925;SDS011;39838;59.938;30.642;2023-07-20T04:43:10;5.68;;;2.60;;
48925;SDS011;39838;59.938;30.642;2023-07-20T04:45:37;11.45;;;3.00;;
48925;SDS011;39838;59.938;30.642;2023-07-20T04:48:06;10.38;;;3.00;;
48925;SDS011;39838;59.938;30.642;2023-07-20T04:50:37;8.57;;;2.80;;
48925;SDS011;39838;59.938;30.642;2023-07-20T04:53:04;5.75;;;2.42;;
48925;SDS011;39838;59.938;30.642;2023-07-20T04:55:32;6.55;;;2.30;;
48925;SDS011;39838;59.938;30.642;2023-07-20T04:58:01;5.50;;;2.20;;
48925;SDS011;39838;59.938;30.642;2023-07-20T05:00:29;9.98;;;2.80;;
48925;SDS011;39838;59.938;30.642;2023-07-20T05:02:57;4.88;;;2.40;;
48925;SDS011;39838;59.938;30.642;2023-07-20T05:05:24;7.82;;;2.55;;
48925;SDS011;39838;59.938;30.642;2023-07-20T05:07:51;8.75;;;2.50;;
48925;SDS011;39838;59.938;30.642;2023-07-20T05:10:18;9.68;;;2.35;;
48925;SDS011;39838;59.938;30.642;2023-07-20T05:12:46;6.70;;;2.22;;
48925;SDS011;39838;59.938;30.642;2023-07-20T05:15:14;4.88;;;2.63;;
48925;SDS011;39838;59.938;30.642;2023-07-20T05:17:42;7.90;;;2.42;;
48925;SDS011;39838;59.938;30.642;2023-07-20T05:20:09;7.72;;;2.33;;
48925;SDS011;39838;59.938;30.642;2023-07-20T05:22:37;6.95;;;2.17;;
48925;SDS011;39838;59.938;30.642;2023-07-20T05:25:06;6.72;;;2.42;;
48925;SDS011;39838;59.938;30.642;2023-07-20T05:27:34;6.25;;;2.30;;
48925;SDS011;39838;59.938;30.642;2023-07-20T05:30:04;7.65;;;2.10;;
48925;SDS011;39838;59.938;30.642;2023-07-20T05:32:34;5.07;;;2.40;;
48925;SDS011;39838;59.938;30.642;2023-07-20T05:35:01;5.80;;;2.25;;
48925;SDS011;39838;59.938;30.642;2023-07-20T05:37:30;5.35;;;2.53;;
48925;SDS011;39838;59.938;30.642;2023-07-20T05:39:57;6.95;;;2.22;;
48925;SDS011;39838;59.938;30.642;2023-07-20T05:42:24;6.65;;;2.40;;
48925;SDS011;39838;59.938;30.642;2023-07-20T05:44:52;5.32;;;2.17;;
48925;SDS011;39838;59.938;30.642;2023-07-20T05:47:20;11.73;;;2.30;;
48925;SDS011;39838;59.938;30.642;2023-07-20T05:49:49;6.53;;;2.83;;
48925;SDS011;39838;59.938;30.642;2023-07-20T05:52:16;6.03;;;2.17;;
48925;SDS011;39838;59.938;30.642;2023-07-20T05:54:43;6.85;;;2.53;;
48925;SDS011;39838;59.938;30.642;2023-07-20T05:57:10;7.82;;;2.40;;
48925;SDS011;39838;59.938;30.642;2023-07-20T05:59:39;5.18;;;2.10;;
48925;SDS011;39838;59.938;30.642;2023-07-20T06:02:09;5.25;;;2.50;;
48925;SDS011;39838;59.938;30.642;2023-07-20T06:04:38;7.05;;;2.40;;
48925;SDS011;39838;59.938;30.642;2023-07-20T06:07:07;6.32;;;2.33;;
48925;SDS011;39838;59.938;30.642;2023-07-20T06:09:34;6.18;;;2.35;;
48925;SDS011;39838;59.938;30.642;2023-07-20T06:12:01;6.03;;;2.22;;
48925;SDS011;39838;59.938;30.642;2023-07-20T06:14:29;7.55;;;2.17;;
48925;SDS011;39838;59.938;30.642;2023-07-20T06:16:57;9.90;;;2.40;;
48925;SDS011;39838;59.938;30.642;2023-07-20T06:19:24;8.15;;;2.47;;
48925;SDS011;39838;59.938;30.642;2023-07-20T06:21:51;6.20;;;2.15;;
48925;SDS011;39838;59.938;30.642;2023-07-20T06:24:20;4.20;;;2.17;;
48925;SDS011;39838;59.938;30.642;2023-07-20T06:26:47;6.95;;;2.28;;
48925;SDS011;39838;59.938;30.642;2023-07-20T06:29:14;4.38;;;2.10;;
48925;SDS011;39838;59.938;30.642;2023-07-20T06:31:41;6.28;;;2.72;;
48925;SDS011;39838;59.938;30.642;2023-07-20T06:34:08;5.68;;;2.40;;
48925;SDS011;39838;59.938;30.642;2023-07-20T06:36:36;4.70;;;2.50;;
48925;SDS011;39838;59.938;30.642;2023-07-20T06:39:03;4.15;;;2.15;;
48925;SDS011;39838;59.938;30.642;2023-07-20T06:41:32;5.30;;;2.22;;
48925;SDS011;39838;59.938;30.642;2023-07-20T06:43:59;7.65;;;2.10;;
48925;SDS011;39838;59.938;30.642;2023-07-20T06:46:26;6.13;;;2.25;;
48925;SDS011;39838;59.938;30.642;2023-07-20T06:48:53;3.78;;;2.03;;
48925;SDS011;39838;59.938;30.642;2023-07-20T06:51:21;5.72;;;2.53;;
48925;SDS011;39838;59.938;30.642;2023-07-20T06:53:48;5.45;;;2.30;;
48925;SDS011;39838;59.938;30.642;2023-07-20T06:56:16;8.20;;;2.05;;
48925;SDS011;39838;59.938;30.642;2023-07-20T06:58:44;4.18;;;2.15;;
48925;SDS011;39838;59.938;30.642;2023-07-20T07:01:12;8.65;;;2.35;;
48925;SDS011;39838;59.938;30.642;2023-07-20T07:03:39;5.75;;;2.15;;
48925;SDS011;39838;59.938;30.642;2023-07-20T07:06:06;6.38;;;1.98;;
48925;SDS011;39838;59.938;30.642;2023-07-20T07:08:33;5.80;;;2.08;;
48925;SDS011;39838;59.938;30.642;2023-07-20T07:11:01;7.47;;;2.10;;
48925;SDS011;39838;59.938;30.642;2023-07-20T07:13:28;3.67;;;1.80;;
48925;SDS011;39838;59.938;30.642;2023-07-20T07:15:57;8.82;;;2.38;;
48925;SDS011;39838;59.938;30.642;2023-07-20T07:18:24;7.32;;;2.30;;
48925;SDS011;39838;59.938;30.642;2023-07-20T07:20:52;8.55;;;1.98;;
48925;SDS011;39838;59.938;30.642;2023-07-20T07:23:19;4.93;;;2.20;;
48925;SDS011;39838;59.938;30.642;2023-07-20T07:25:47;9.50;;;2.90;;
48925;SDS011;39838;59.938;30.642;2023-07-20T07:28:14;7.65;;;2.83;;
48925;SDS011;39838;59.938;30.642;2023-07-20T07:30:41;7.28;;;3.00;;
48925;SDS011;39838;59.938;30.642;2023-07-20T07:33:10;10.45;;;2.60;;
48925;SDS011;39838;59.938;30.642;2023-07-20T07:35:38;5.38;;;2.10;;
48925;SDS011;39838;59.938;30.642;2023-07-20T07:38:05;7.93;;;2.33;;
48925;SDS011;39838;59.938;30.642;2023-07-20T07:40:32;6.75;;;1.95;;
48925;SDS011;39838;59.938;30.642;2023-07-20T07:43:00;5.60;;;1.90;;
48925;SDS011;39838;59.938;30.642;2023-07-20T07:45:27;6.32;;;1.55;;
48925;SDS011;39838;59.938;30.642;2023-07-20T07:47:54;7.78;;;2.10;;
48925;SDS011;39838;59.938;30.642;2023-07-20T07:50:23;7.03;;;2.03;;
48925;SDS011;39838;59.938;30.642;2023-07-20T07:52:50;4.50;;;1.80;;
48925;SDS011;39838;59.938;30.642;2023-07-20T07:55:17;8.00;;;1.77;;
48925;SDS011;39838;59.938;30.642;2023-07-20T07:57:45;5.85;;;1.65;;
48925;SDS011;39838;59.938;30.642;2023-07-20T08:00:13;6.60;;;1.80;;
48925;SDS011;39838;59.938;30.642;2023-07-20T08:02:45;4.82;;;1.92;;
48925;SDS011;39838;59.938;30.642;2023-07-20T08:05:14;4.55;;;1.90;;
48925;SDS011;39838;59.938;30.642;2023-07-20T08:07:42;3.15;;;1.58;;
48925;SDS011;39838;59.938;30.642;2023-07-20T08:10:10;4.90;;;1.88;;
48925;SDS011;39838;59.938;30.642;2023-07-20T08:12:38;3.97;;;1.75;;
48925;SDS011;39838;59.938;30.642;2023-07-20T08:15:06;7.32;;;2.35;;
48925;SDS011;39838;59.938;30.642;2023-07-20T08:17:34;6.13;;;2.00;;
48925;SDS011;39838;59.938;30.642;2023-07-20T08:20:01;6.07;;;2.15;;
48925;SDS011;39838;59.938;30.642;2023-07-20T08:22:31;5.70;;;2.60;;
48925;SDS011;39838;59.938;30.642;2023-07-20T08:25:00;7.97;;;2.10;;
48925;SDS011;39838;59.938;30.642;2023-07-20T08:27:29;7.63;;;1.80;;
48925;SDS011;39838;59.938;30.642;2023-07-20T08:29:56;5.28;;;1.95;;
48925;SDS011;39838;59.938;30.642;2023-07-20T08:32:24;5.32;;;2.28;;
48925;SDS011;39838;59.938;30.642;2023-07-20T08:34:52;8.90;;;1.92;;
48925;SDS011;39838;59.938;30.642;2023-07-20T08:37:19;5.22;;;1.70;;
48925;SDS011;39838;59.938;30.642;2023-07-20T08:39:46;9.98;;;1.95;;
48925;SDS011;39838;59.938;30.642;2023-07-20T08:42:15;10.13;;;2.42;;
48925;SDS011;39838;59.938;30.642;2023-07-20T08:44:43;7.35;;;2.00;;
48925;SDS011;39838;59.938;30.642;2023-07-20T08:47:12;2.67;;;1.42;;
48925;SDS011;39838;59.938;30.642;2023-07-20T08:49:42;6.38;;;2.03;;
48925;SDS011;39838;59.938;30.642;2023-07-20T08:52:09;7.03;;;2.05;;
48925;SDS011;39838;59.938;30.642;2023-07-20T08:54:38;6.30;;;1.90;;
48925;SDS011;39838;59.938;30.642;2023-07-20T08:57:06;5.53;;;1.90;;
48925;SDS011;39838;59.938;30.642;2023-07-20T08:59:36;5.47;;;2.00;;
48925;SDS011;39838;59.938;30.642;2023-07-20T09:02:05;6.15;;;2.10;;
48925;SDS011;39838;59.938;30.642;2023-07-20T09:04:35;4.63;;;1.63;;
48925;SDS011;39838;59.938;30.642;2023-07-20T09:07:02;5.40;;;2.03;;
48925;SDS011;39838;59.938;30.642;2023-07-20T09:09:30;8.13;;;2.05;;
48925;SDS011;39838;59.938;30.642;2023-07-20T09:11:57;7.60;;;2.10;;
48925;SDS011;39838;59.938;30.642;2023-07-20T09:14:24;9.63;;;2.67;;
48925;SDS011;39838;59.938;30.642;2023-07-20T09:16:53;5.30;;;1.88;;
48925;SDS011;39838;59.938;30.642;2023-07-20T09:19:22;4.68;;;1.88;;
48925;SDS011;39838;59.938;30.642;2023-07-20T09:21:50;7.15;;;2.10;;
48925;SDS011;39838;59.938;30.642;2023-07-20T09:24:18;7.97;;;2.28;;
48925;SDS011;39838;59.938;30.642;2023-07-20T09:26:47;6.32;;;1.95;;
48925;SDS011;39838;59.938;30.642;2023-07-20T09:29:17;5.40;;;2.00;;
48925;SDS011;39838;59.938;30.642;2023-07-20T09:31:59;5.57;;;1.95;;
48925;SDS011;39838;59.938;30.642;2023-07-20T09:34:28;9.80;;;2.15;;
48925;SDS011;39838;59.938;30.642;2023-07-20T09:36:57;5.32;;;2.10;;
48925;SDS011;39838;59.938;30.642;2023-07-20T09:39:24;8.05;;;2.25;;
48925;SDS011;39838;59.938;30.642;2023-07-20T09:41:52;8.30;;;2.00;;
48925;SDS011;39838;59.938;30.642;2023-07-20T09:44:19;11.70;;;2.33;;
48925;SDS011;39838;59.938;30.642;2023-07-20T09:46:47;9.77;;;2.03;;
48925;SDS011;39838;59.938;30.642;2023-07-20T09:49:16;8.15;;;2.05;;
48925;SDS011;39838;59.938;30.642;2023-07-20T09:51:44;6.57;;;2.03;;
48925;SDS011;39838;59.938;30.642;2023-07-20T09:54:13;6.05;;;1.90;;
48925;SDS011;39838;59.938;30.642;2023-07-20T09:56:41;4.15;;;1.95;;
48925;SDS011;39838;59.938;30.642;2023-07-20T09:59:09;7.50;;;2.30;;
48925;SDS011;39838;59.938;30.642;2023-07-20T10:01:36;9.00;;;2.20;;
48925;SDS011;39838;59.938;30.642;2023-07-20T10:04:07;5.07;;;2.05;;
48925;SDS011;39838;59.938;30.642;2023-07-20T10:06:39;5.00;;;1.98;;
48925;SDS011;39838;59.938;30.642;2023-07-20T10:09:09;5.88;;;1.85;;
48925;SDS011;39838;59.938;30.642;2023-07-20T10:11:40;11.23;;;2.20;;
48925;SDS011;39838;59.938;30.642;2023-07-20T10:14:19;5.53;;;1.85;;
48925;SDS011;39838;59.938;30.642;2023-07-20T10:16:50;5.43;;;1.90;;
48925;SDS011;39838;59.938;30.642;2023-07-20T10:19:22;6.50;;;2.08;;
48925;SDS011;39838;59.938;30.642;2023-07-20T10:21:55;4.70;;;2.20;;
48925;SDS011;39838;59.938;30.642;2023-07-20T10:24:26;8.20;;;2.30;;
48925;SDS011;39838;59.938;30.642;2023-07-20T10:26:54;6.10;;;2.28;;
48925;SDS011;39838;59.938;30.642;2023-07-20T10:29:22;7.10;;;2.33;;
48925;SDS011;39838;59.938;30.642;2023-07-20T10:31:53;6.32;;;2.95;;
48925;SDS011;39838;59.938;30.642;2023-07-20T10:34:21;7.15;;;2.30;;
48925;SDS011;39838;59.938;30.642;2023-07-20T10:36:49;6.32;;;2.13;;
48925;SDS011;39838;59.938;30.642;2023-07-20T10:39:25;9.80;;;3.08;;
48925;SDS011;39838;59.938;30.642;2023-07-20T10:41:59;8.20;;;3.05;;
48925;SDS011;39838;59.938;30.642;2023-07-20T10:47:01;7.47;;;3.17;;
48925;SDS011;39838;59.938;30.642;2023-07-20T10:49:32;5.47;;;2.97;;
48925;SDS011;39838;59.938;30.642;2023-07-20T10:52:03;5.85;;;2.53;;
48925;SDS011;39838;59.938;30.642;2023-07-20T10:54:35;5.57;;;2.47;;
48925;SDS011;39838;59.938;30.642;2023-07-20T10:57:22;4.07;;;2.20;;
48925;SDS011;39838;59.938;30.642;2023-07-20T10:59:51;4.80;;;2.30;;
48925;SDS011;39838;59.938;30.642;2023-07-20T11:02:18;7.10;;;2.40;;
48925;SDS011;39838;59.938;30.642;2023-07-20T11:04:47;3.50;;;2.20;;
48925;SDS011;39838;59.938;30.642;2023-07-20T11:07:15;6.65;;;2.55;;
48925;SDS011;39838;59.938;30.642;2023-07-20T11:09:44;5.38;;;2.30;;
48925;SDS011;39838;59.938;30.642;2023-07-20T11:12:12;5.38;;;2.17;;
48925;SDS011;39838;59.938;30.642;2023-07-20T11:14:41;6.07;;;2.10;;
48925;SDS011;39838;59.938;30.642;2023-07-20T11:17:12;4.25;;;1.90;;
48925;SDS011;39838;59.938;30.642;2023-07-20T11:19:40;5.93;;;2.28;;
48925;SDS011;39838;59.938;30.642;2023-07-20T11:22:07;4.95;;;2.03;;
48925;SDS011;39838;59.938;30.642;2023-07-20T11:24:37;5.82;;;1.95;;
48925;SDS011;39838;59.938;30.642;2023-07-20T11:27:07;3.83;;;1.80;;
48925;SDS011;39838;59.938;30.642;2023-07-20T11:29:34;4.00;;;1.80;;
48925;SDS011;39838;59.938;30.642;2023-07-20T11:32:02;3.47;;;1.65;;
48925;SDS011;39838;59.938;30.642;2023-07-20T11:34:30;6.43;;;1.80;;
48925;SDS011;39838;59.938;30.642;2023-07-20T11:36:58;5.22;;;1.80;;
48925;SDS011;39838;59.938;30.642;2023-07-20T11:39:26;5.47;;;2.03;;
48925;SDS011;39838;59.938;30.642;2023-07-20T11:41:54;5.18;;;1.90;;
48925;SDS011;39838;59.938;30.642;2023-07-20T11:44:24;4.05;;;1.67;;
48925;SDS011;39838;59.938;30.642;2023-07-20T11:46:59;4.45;;;1.80;;
48925;SDS011;39838;59.938;30.642;2023-07-20T11:49:28;5.93;;;1.88;;
48925;SDS011;39838;59.938;30.642;2023-07-20T11:51:56;12.05;;;1.95;;
48925;SDS011;39838;59.938;30.642;2023-07-20T11:54:24;5.40;;;1.75;;
48925;SDS011;39838;59.938;30.642;2023-07-20T11:56:53;7.30;;;2.13;;
48925;SDS011;39838;59.938;30.642;2023-07-20T11:59:21;5.45;;;1.77;;
48925;SDS011;39838;59.938;30.642;2023-07-20T12:01:50;3.08;;;1.70;;
48925;SDS011;39838;59.938;30.642;2023-07-20T12:04:17;6.18;;;1.73;;
48925;SDS011;39838;59.938;30.642;2023-07-20T12:06:45;3.20;;;1.45;;
48925;SDS011;39838;59.938;30.642;2023-07-20T12:09:13;4.45;;;1.67;;
48925;SDS011;39838;59.938;30.642;2023-07-20T12:11:42;3.75;;;1.67;;
48925;SDS011;39838;59.938;30.642;2023-07-20T12:14:10;8.48;;;2.00;;
48925;SDS011;39838;59.938;30.642;2023-07-20T12:16:38;5.18;;;1.90;;
48925;SDS011;39838;59.938;30.642;2023-07-20T12:19:07;3.78;;;1.83;;
48925;SDS011;39838;59.938;30.642;2023-07-20T12:21:35;5.28;;;1.77;;
48925;SDS011;39838;59.938;30.642;2023-07-20T12:24:03;6.97;;;1.70;;
48925;SDS011;39838;59.938;30.642;2023-07-20T12:26:31;5.82;;;1.60;;
48925;SDS011;39838;59.938;30.642;2023-07-20T12:29:00;2.70;;;1.45;;
48925;SDS011;39838;59.938;30.642;2023-07-20T12:31:29;7.70;;;2.08;;
48925;SDS011;39838;59.938;30.642;2023-07-20T12:33:56;9.90;;;1.70;;
48925;SDS011;39838;59.938;30.642;2023-07-20T12:36:26;6.75;;;2.33;;
48925;SDS011;39838;59.938;30.642;2023-07-20T12:38:53;5.03;;;2.00;;
48925;SDS011;39838;59.938;30.642;2023-07-20T12:41:20;9.18;;;1.92;;
48925;SDS011;39838;59.938;30.642;2023-07-20T12:43:47;4.93;;;1.40;;
48925;SDS011;39838;59.938;30.642;2023-07-20T12:46:15;3.90;;;1.70;;
48925;SDS011;39838;59.938;30.642;2023-07-20T12:48:42;5.60;;;1.33;;
48925;SDS011;39838;59.938;30.642;2023-07-20T12:51:09;7.22;;;1.60;;
48925;SDS011;39838;59.938;30.642;2023-07-20T12:53:38;6.55;;;1.50;;
48925;SDS011;39838;59.938;30.642;2023-07-20T12:56:06;3.10;;;1.50;;
48925;SDS011;39838;59.938;30.642;2023-07-20T12:58:33;6.32;;;1.80;;
48925;SDS011;39838;59.938;30.642;2023-07-20T13:01:00;6.63;;;1.80;;
48925;SDS011;39838;59.938;30.642;2023-07-20T13:03:27;4.45;;;1.75;;
48925;SDS011;39838;59.938;30.642;2023-07-20T13:05:55;4.38;;;1.55;;
48925;SDS011;39838;59.938;30.642;2023-07-20T13:08:23;3.97;;;1.42;;
48925;SDS011;39838;59.938;30.642;2023-07-20T13:10:53;5.75;;;1.50;;
48925;SDS011;39838;59.938;30.642;2023-07-20T13:13:21;4.53;;;1.40;;
48925;SDS011;39838;59.938;30.642;2023-07-20T13:15:48;7.57;;;2.10;;
48925;SDS011;39838;59.938;30.642;2023-07-20T13:18:15;6.63;;;1.77;;
48925;SDS011;39838;59.938;30.642;2023-07-20T13:20:43;6.82;;;1.65;;
48925;SDS011;39838;59.938;30.642;2023-07-20T13:23:10;6.70;;;1.70;;
48925;SDS011;39838;59.938;30.642;2023-07-20T13:25:37;4.03;;;1.65;;
48925;SDS011;39838;59.938;30.642;2023-07-20T13:28:06;3.50;;;1.35;;
48925;SDS011;39838;59.938;30.642;2023-07-20T13:30:34;3.25;;;1.38;;
48925;SDS011;39838;59.938;30.642;2023-07-20T13:33:01;5.20;;;1.27;;
48925;SDS011;39838;59.938;30.642;2023-07-20T13:35:28;3.33;;;1.38;;
48925;SDS011;39838;59.938;30.642;2023-07-20T13:37:56;4.78;;;2.08;;
48925;SDS011;39838;59.938;30.642;2023-07-20T13:40:23;3.70;;;1.40;;
48925;SDS011;39838;59.938;30.642;2023-07-20T13:42:50;4.25;;;1.35;;
48925;SDS011;39838;59.938;30.642;2023-07-20T13:45:18;3.88;;;1.30;;
48925;SDS011;39838;59.938;30.642;2023-07-20T13:47:46;3.00;;;1.08;;
48925;SDS011;39838;59.938;30.642;2023-07-20T13:50:13;5.20;;;1.40;;
48925;SDS011;39838;59.938;30.642;2023-07-20T13:52:40;6.28;;;1.50;;
48925;SDS011;39838;59.938;30.642;2023-07-20T13:55:07;5.10;;;1.50;;
48925;SDS011;39838;59.938;30.642;2023-07-20T13:57:35;6.38;;;1.52;;
48925;SDS011;39838;59.938;30.642;2023-07-20T14:00:02;5.20;;;1.55;;
48925;SDS011;39838;59.938;30.642;2023-07-20T14:02:34;4.53;;;1.30;;
48925;SDS011;39838;59.938;30.642;2023-07-20T14:05:02;3.55;;;1.38;;
48925;SDS011;39838;59.938;30.642;2023-07-20T14:07:30;6.68;;;1.40;;
48925;SDS011;39838;59.938;30.642;2023-07-20T14:09:57;5.63;;;1.60;;
48925;SDS011;39838;59.938;30.642;2023-07-20T14:12:24;7.38;;;1.65;;
48925;SDS011;39838;59.938;30.642;2023-07-20T14:14:51;4.45;;;1.50;;
48925;SDS011;39838;59.938;30.642;2023-07-20T14:17:19;10.30;;;1.98;;
48925;SDS011;39838;59.938;30.642;2023-07-20T14:19:48;3.70;;;1.58;;
48925;SDS011;39838;59.938;30.642;2023-07-20T14:22:16;2.53;;;1.20;;
48925;SDS011;39838;59.938;30.642;2023-07-20T14:24:44;3.20;;;1.60;;
48925;SDS011;39838;59.938;30.642;2023-07-20T14:27:11;5.43;;;1.60;;
48925;SDS011;39838;59.938;30.642;2023-07-20T14:29:38;4.60;;;1.42;;
48925;SDS011;39838;59.938;30.642;2023-07-20T14:32:05;5.47;;;1.30;;
48925;SDS011;39838;59.938;30.642;2023-07-20T14:34:33;7.95;;;1.42;;
48925;SDS011;39838;59.938;30.642;2023-07-20T14:37:01;2.95;;;1.33;;
48925;SDS011;39838;59.938;30.642;2023-07-20T14:39:29;7.07;;;1.45;;
48925;SDS011;39838;59.938;30.642;2023-07-20T14:41:57;2.38;;;1.20;;
48925;SDS011;39838;59.938;30.642;2023-07-20T14:44:24;4.88;;;1.30;;
48925;SDS011;39838;59.938;30.642;2023-07-20T14:46:51;7.57;;;1.48;;